• Join FlightAware (Why Join?)
  • Login
  • US Flag 
05:06PM EDT


 

Airport Tracker/Info


-or-


 

Live Flight TrackerFlight Track Log ✈ SWA641 ✈ 18-Apr-2013 ✈ KMDW - KMSP

Flight Track Log - Related Links

Times and Time Zones

All times are in EDT time to prevent confusion due to time zone crossing. See the SWA641 flight status page for this flight to view local times or setup timezone preferences in your user account.

Time Position Orientation Groundspeed Altitude Reporting Facility
EDT Latitude Longitude Course Direction KTS MPH feet Rate Location/Type
10:04AM 38.9167 -77.4833 343° North 199 229 3,100  Level Potomac TRACON
10:05AM 38.9167 -77.5500 270° West 200 230 4,800 1,560 Climbing Potomac TRACON
10:07AM 38.8947 -77.7039 260° West 253 291 7,400 2,040 Climbing Washington Center
10:08AM 38.8872 -77.7864 263° West 263 303 10,500 3,060 Climbing Washington Center
10:09AM 38.8978 -77.8881 278° West 274 315 13,600 2,700 Climbing Washington Center
10:10AM 39.0878 -77.7504 343° North  Level Estimated
10:10AM 38.9183 -78.0036 283° West 302 348 16,000  Level Washington Center
10:11AM 38.9450 -78.1325 285° West 335 386 19,200 3,000 Climbing Washington Center
10:12AM 38.9608 -78.2639 279° West 371 427 22,000 1,440 Climbing Washington Center
10:13AM 38.9661 -78.4031 273° West 387 445 22,100 1,200 Climbing Washington Center
10:14AM 38.9711 -78.5447 273° West 397 457 24,500 2,340 Climbing Washington Center
10:15AM 38.9756 -78.6944 272° West 407 468 26,800 2,280 Climbing Washington Center
10:16AM 38.9797 -78.8467 272° West 421 484 29,100 2,280 Climbing Washington Center
10:17AM 38.9839 -78.9992 272° West 427 491 31,400 2,100 Climbing Washington Center
10:18AM 38.9878 -79.1517 272° West 432 497 33,400 1,800 Climbing Washington Center
10:19AM 38.9914 -79.3094 272° West 438 504 35,100 3,300 Climbing Washington Center
10:20AM 38.9964 -79.4831 272° West 448 516 40,000 1,500 Climbing Washington Center
10:21AM 38.9994 -79.6411 271° West 448 516 38,100 -300 Descending Washington Center
10:22AM 39.0025 -79.7986 271° West 448 516 39,400 600 Climbing Washington Center
10:24AM 39.0039 -80.0797 270° West 429 494 40,000 180 Climbing Indianapolis Center
10:25AM 39.0061 -80.2317 271° West 430 495 40,000  Level Indianapolis Center
10:26AM 39.0083 -80.3825 271° West 425 489 40,000  Level Indianapolis Center
10:27AM 39.0378 -80.5253 285° West 426 490 40,000  Level Indianapolis Center
10:28AM 39.1078 -80.6858 299° West 428 493 40,000  Level Indianapolis Center
10:29AM 39.1667 -80.8172 300° West 426 490 40,000  Level Indianapolis Center
10:30AM 39.2239 -80.9475 300° West 422 486 40,000  Level Indianapolis Center
10:31AM 39.2811 -81.0764 300° West 418 481 40,000  Level Indianapolis Center
10:32AM 39.3383 -81.2042 300° West 414 476 40,000  Level Indianapolis Center
10:33AM 39.3933 -81.3319 299° West 410 472 40,000 -60 Level Indianapolis Center
10:34AM 39.4486 -81.4583 300° West 406 467 39,900  Descending Indianapolis Center
10:35AM 39.5147 -81.6100 300° West 406 467 40,000  Climbing Indianapolis Center
10:36AM 39.5708 -81.7378 300° West 407 468 40,000  Level Indianapolis Center
10:37AM 39.6253 -81.8667 299° West 408 470 40,000  Level Indianapolis Center
10:38AM 39.6803 -81.9953 299° West 407 468 40,000  Level Indianapolis Center
10:39AM 39.7353 -82.1203 300° West 408 470 40,000  Level Indianapolis Center
10:41AM 39.7900 -82.2494 299° West 405 466 40,000  Level Indianapolis Center
10:42AM 39.8528 -82.3989 299° West 402 463 40,000  Level Indianapolis Center
10:43AM 39.9069 -82.5283 299° West 404 465 40,000  Level Indianapolis Center
10:44AM 39.9619 -82.6578 299° West 404 465 40,000  Level Indianapolis Center
10:45AM 40.0144 -82.7850 298° West 400 460 40,000  Level Indianapolis Center
10:46AM 40.0794 -82.9036 306° West 400 460 40,000  Level Indianapolis Center
10:47AM 40.1494 -83.0169 309° West 400 460 40,000  Level Indianapolis Center
10:48AM 40.2192 -83.1306 309° West 399 459 40,000  Level Indianapolis Center
10:49AM 40.2886 -83.2447 309° West 399 459 40,000  Level Indianapolis Center
10:50AM 40.3686 -83.3769 308° West 397 457 40,000  Level Indianapolis Center
10:51AM 40.4375 -83.4900 309° West 395 455 40,000  Level Indianapolis Center
10:52AM 40.5058 -83.6036 308° West 395 455 40,000  Level Indianapolis Center
10:53AM 40.5744 -83.7175 308° West 395 455 40,000  Level Indianapolis Center
10:54AM 40.6428 -83.8328 308° West 397 457 40,000  Level Indianapolis Center
10:55AM 40.7119 -83.9469 309° West 394 453 40,000  Level Indianapolis Center
10:56AM 40.7808 -84.0631 308° West 398 458 40,000  Level Indianapolis Center
10:57AM 40.8497 -84.1803 308° West 401 461 40,000  Level Indianapolis Center
10:58AM 40.8992 -84.2622 309° West 403 464 40,000  Level Chicago Center
10:59AM 40.9669 -84.3783 308° West 399 459 40,000  Level Chicago Center
11:00AM 41.0339 -84.4936 308° West 397 457 40,000  Level Chicago Center
11:01AM 41.1022 -84.6089 308° West 398 458 40,000  Level Chicago Center
11:02AM 41.1825 -84.7489 307° West 398 458 40,000  Level Chicago Center
11:03AM 41.2500 -84.8650 308° West 399 459 40,000  Level Chicago Center
11:04AM 41.3169 -84.9814 307° West 397 457 40,000  Level Chicago Center
11:05AM 41.3847 -85.0994 307° West 400 460 40,000  Level Chicago Center
11:06AM 41.4511 -85.2169 307° West 398 458 40,000  Level Chicago Center
11:07AM 41.5186 -85.3364 307° West 400 460 40,000 180 Level Chicago Center
11:08AM 41.5867 -85.4533 308° West 397 457 40,400 480 Climbing Chicago Center
11:09AM 41.6519 -85.5708 307° West 395 455 41,000 240 Climbing Chicago Center
11:10AM 41.7206 -85.6939 307° West 388 447 41,000  Level Chicago Center
11:11AM 41.7850 -85.8086 307° West 385 443 41,000  Level Chicago Center
11:12AM 41.8503 -85.9233 307° West 386 444 41,000  Level Chicago Center
11:13AM 41.9156 -86.0386 307° West 388 447 41,000  Level Chicago Center
11:14AM 41.9786 -86.1536 306° West 385 443 41,000  Level Chicago Center
11:15AM 42.0408 -86.2703 306° West 382 440 41,000  Level Chicago Center
11:16AM 42.1050 -86.3883 306° West 389 448 41,000  Level Chicago Center
11:17AM 42.1708 -86.5078 307° West 396 456 41,000  Level Chicago Center
11:18AM 42.2514 -86.6525 307° West 400 460 41,000  Level Chicago Center
11:19AM 42.3122 -86.7639 306° West 413 475 41,000  Level Chicago Center
11:20AM 42.3800 -86.8886 306° West 415 478 41,000  Level Chicago Center
11:21AM 42.4600 -87.0394 306° West 417 480 41,000  Level Chicago Center
11:22AM 42.5275 -87.1644 306° West 416 479 41,000 -300 Level Chicago Center
11:23AM 42.5900 -87.2819 306° West 423 487 40,400 -540 Descending Chicago Center
11:24AM 42.6669 -87.4256 306° West 427 491 40,000 -240 Descending Chicago Center
11:25AM 42.7367 -87.5572 306° West 428 493 40,000  Level Chicago Center
11:26AM 42.8056 -87.6892 305° West 426 490 40,000  Level Chicago Center
11:27AM 42.8744 -87.8211 305° West 428 493 40,000  Level Chicago Center
11:28AM 42.9450 -87.9514 307° West 426 490 40,000  Level Chicago Center
11:29AM 43.0131 -88.0847 305° West 428 493 40,000  Level Chicago Center
11:30AM 43.0825 -88.2194 305° West 431 496 40,000  Level Chicago Center
11:31AM 43.1564 -88.3528 307° West 437 503 40,000  Level Chicago Center
11:32AM 43.2347 -88.4869 309° West 445 512 40,000  Level Chicago Center
11:33AM 43.3125 -88.6222 308° West 443 510 40,000  Level Chicago Center
11:34AM 43.3917 -88.7558 309° West 443 510 40,000  Level Chicago Center
11:36AM 43.4682 -88.8862 309° West  Level FlightAware Approximate
11:43AM 43.9079 -89.6576 307° West  Level FlightAware Approximate
11:44AM 43.9691 -89.7700 307° West  Level FlightAware Approximate
11:45AM 44.0302 -89.8826 307° West  Level FlightAware Approximate
11:46AM 44.0917 -89.9949 308° West  Level FlightAware Approximate
11:47AM 44.1537 -90.1069 307° West  Level FlightAware Approximate
11:48AM 44.2143 -90.2203 307° West  Level FlightAware Approximate
11:49AM 44.2748 -90.3340 307° West  Level FlightAware Approximate
11:50AM 44.3378 -90.4452 309° West  Level FlightAware Approximate
11:51AM 44.3969 -90.5605 305° West  Level FlightAware Approximate
11:52AM 44.4624 -90.6686 313° West  Level FlightAware Approximate
11:53AM 44.5253 -90.7800 306° West  Level FlightAware Approximate
11:54AM 44.5853 -90.8948 306° West  Level FlightAware Approximate
11:55AM 44.6452 -91.0098 306° West  Level FlightAware Approximate
11:56AM 44.7052 -91.1249 306° West  Level FlightAware Approximate
11:57AM 44.7654 -91.2399 306° West  Level FlightAware Approximate
11:58AM 44.8254 -91.3551 306° West  Level FlightAware Approximate
11:59AM 44.8845 -91.4713 290° West  Level FlightAware Approximate
12:00PM 44.9183 -91.6064 290° West  Level FlightAware Approximate
12:01PM 44.9454 -91.7442 282° West  Level FlightAware Approximate
12:02PM 44.9670 -91.8843 282° West  Level FlightAware Approximate
12:03PM 44.9885 -92.0245 282° West  Level FlightAware Approximate
12:04PM 45.0180 -92.1608 280° West  Level FlightAware Approximate
12:05PM 45.0333 -92.3025 270° West  Level FlightAware Approximate
12:06PM 45.0139 -92.4431 258° West  Level FlightAware Approximate
12:07PM 44.9958 -92.5835 251° West  Level FlightAware Approximate
12:08PM 44.9667 -92.7198 270° West  Level FlightAware Approximate
12:09PM 44.9472 -92.8603 258° West  Level FlightAware Approximate
12:10PM 44.9212 -92.9986 251° West  Level FlightAware Approximate
12:11PM 44.8971 -93.1354 248° West  Level FlightAware Approximate
12:12PM 44.8667 -93.2167 235° Southwest  Level FlightAware Approximate
12:13PM 44.8820 -93.2218 235° Southwest  Level Estimated
12:14PM 44.8820 -93.2218 235° Southwest  Level Estimated
12:15PM 44.8820 -93.2218 235° Southwest  Level Estimated
12:16PM 44.8820 -93.2218 235° Southwest  Level Estimated
12:17PM 44.8820 -93.2218 235° Southwest  Level Estimated
12:18PM 44.8820 -93.2218 235° Southwest  Level Estimated
12:19PM 44.8820 -93.2218 235° Southwest  Level Estimated
12:20PM 44.8820 -93.2218 235° Southwest  Level Estimated
12:21PM 44.8820 -93.2218 235° Southwest  Level Estimated
12:22PM 44.8820 -93.2218 235° Southwest  Level Estimated
12:23PM 44.8820 -93.2218 235° Southwest  Level Estimated
12:24PM 44.8820 -93.2218 235° Southwest  Level Estimated
12:25PM 44.8820 -93.2218 235° Southwest  Level Estimated
12:26PM 44.8820 -93.2218 235° Southwest  Level Estimated
12:27PM 44.8820 -93.2218 235° Southwest  Level Estimated
12:28PM 44.8820 -93.2218 235° Southwest  Level Estimated
12:29PM 44.8820 -93.2218 235° Southwest  Level Estimated
12:30PM 44.8820 -93.2218 235° Southwest  Level Estimated
12:31PM 44.8820 -93.2218 235° Southwest  Level Estimated
12:32PM 44.8820 -93.2218 235° Southwest  Level Estimated
12:33PM 44.8820 -93.2218 235° Southwest  Level Estimated
12:34PM 44.8820 -93.2218 235° Southwest  Level Estimated
12:35PM 44.8820 -93.2218 235° Southwest  Level Estimated
12:36PM 44.8820 -93.2218 235° Southwest  Level Estimated
12:37PM 44.8820 -93.2218 235° Southwest  Level Estimated
12:38PM 44.8820 -93.2218 235° Southwest  Level Estimated
12:39PM 44.8820 -93.2218 235° Southwest  Level Estimated
12:40PM 44.8820 -93.2218 235° Southwest  Level Estimated